createdAt,value
2019-04-04T00:00:41.985Z,75.68
2019-04-04T00:03:09.486Z,75.71
2019-04-04T00:05:36.916Z,75.71
2019-04-04T00:08:04.374Z,76.32
2019-04-04T00:10:32.895Z,75.93
2019-04-04T00:12:59.292Z,75.39
2019-04-04T00:15:26.730Z,75.45
2019-04-04T00:17:54.362Z,75.46
2019-04-04T00:20:21.718Z,75.55
2019-04-04T00:22:49.174Z,75.95
2019-04-04T00:25:16.626Z,77.96
2019-04-04T00:27:44.620Z,76.97
2019-04-04T00:30:11.632Z,76.45
2019-04-04T00:32:39.102Z,76.97
2019-04-04T00:35:06.600Z,77.11
2019-04-04T00:37:34.456Z,77.03
2019-04-04T00:40:01.507Z,76.65
2019-04-04T00:42:28.946Z,76.46
2019-04-04T00:44:56.441Z,75.96
2019-04-04T00:47:23.908Z,76.01
2019-04-04T00:49:51.357Z,75.52
2019-04-04T00:52:18.791Z,75.32
2019-04-04T00:54:46.228Z,75.25
2019-04-04T00:57:13.704Z,75.33
2019-04-04T00:59:41.136Z,76.25
2019-04-04T01:02:08.610Z,75.79
2019-04-04T01:04:36.071Z,76.76
2019-04-04T01:07:05.001Z,76.56
2019-04-04T01:09:30.993Z,77.15
2019-04-04T01:11:58.466Z,76.34
2019-04-04T01:14:27.184Z,76.68
2019-04-04T01:16:54.052Z,76.59
2019-04-04T01:19:21.502Z,75.98
2019-04-04T01:21:48.985Z,75.80
2019-04-04T01:24:16.407Z,75.73
2019-04-04T01:26:43.905Z,76.13
2019-04-04T01:29:11.363Z,76.34
2019-04-04T01:31:38.782Z,77.01
2019-04-04T01:34:06.264Z,76.99
2019-04-04T01:36:33.692Z,78.01
2019-04-04T01:39:01.147Z,78.08
2019-04-04T01:43:49.590Z,77.00
2019-04-04T01:46:17.041Z,77.10
2019-04-04T01:48:44.523Z,76.65
2019-04-04T01:51:11.989Z,76.38
2019-04-04T01:53:39.496Z,75.76
2019-04-04T01:56:07.094Z,75.99
2019-04-04T01:58:34.734Z,75.77
2019-04-04T02:01:02.197Z,76.50
2019-04-04T02:03:29.919Z,75.97
2019-04-04T02:05:58.203Z,75.93
2019-04-04T02:08:24.873Z,75.74
2019-04-04T02:10:52.327Z,75.45
2019-04-04T02:13:19.802Z,75.44
2019-04-04T02:15:48.283Z,77.12
2019-04-04T02:18:15.711Z,76.46
2019-04-04T02:20:43.150Z,76.28
2019-04-04T02:23:10.624Z,75.97
2019-04-04T02:25:38.069Z,76.72
2019-04-04T02:28:06.943Z,76.34
2019-04-04T02:30:33.021Z,75.99
2019-04-04T02:33:00.656Z,75.71
2019-04-04T02:35:28.043Z,75.82
2019-04-04T02:37:56.183Z,75.81
2019-04-04T02:40:23.015Z,75.47
2019-04-04T02:42:54.171Z,75.14
2019-04-04T02:45:17.941Z,75.58
2019-04-04T02:47:50.026Z,75.94
2019-04-04T02:50:12.919Z,75.60
2019-04-04T02:52:40.380Z,75.18
2019-04-04T02:55:07.864Z,75.27
2019-04-04T02:57:35.299Z,75.17
2019-04-04T03:00:02.762Z,75.46
2019-04-04T03:02:31.093Z,74.99
2019-04-04T03:04:58.557Z,74.81
2019-04-04T03:07:29.871Z,74.71
2019-04-04T03:09:54.128Z,75.36
2019-04-04T03:12:25.727Z,76.35
2019-04-04T03:14:50.629Z,75.63
2019-04-04T03:17:16.563Z,75.59
2019-04-04T03:19:44.669Z,75.41
2019-04-04T03:22:11.533Z,75.80
2019-04-04T03:24:40.402Z,75.68
2019-04-04T03:27:06.467Z,75.50
2019-04-04T03:29:37.196Z,75.27
2019-04-04T03:32:01.686Z,76.36
2019-04-04T03:34:29.160Z,76.02
2019-04-04T03:36:56.917Z,76.60
2019-04-04T03:39:24.385Z,76.23
2019-04-04T03:41:51.821Z,75.47
2019-04-04T03:44:19.852Z,74.83
2019-04-04T03:46:46.759Z,74.57
2019-04-04T03:49:14.215Z,74.83
2019-04-04T03:51:41.685Z,75.02
2019-04-04T03:54:09.104Z,75.30
2019-04-04T03:56:39.414Z,74.84
2019-04-04T03:59:04.070Z,74.79
2019-04-04T04:01:32.461Z,74.76
2019-04-04T04:03:59.925Z,75.52
2019-04-04T04:06:27.389Z,76.86
2019-04-04T04:08:55.262Z,77.59
2019-04-04T04:11:22.370Z,77.18
2019-04-04T04:13:50.142Z,76.42
2019-04-04T04:16:18.206Z,75.96
2019-04-04T04:18:45.897Z,75.98
2019-04-04T04:21:13.339Z,76.08
2019-04-04T04:23:40.773Z,76.02
2019-04-04T04:26:09.643Z,75.73
2019-04-04T04:28:35.710Z,75.58
2019-04-04T04:31:03.129Z,75.19
2019-04-04T04:33:30.600Z,74.88
2019-04-04T04:35:58.073Z,75.29
2019-04-04T04:38:26.967Z,76.14
2019-04-04T04:40:52.997Z,77.59
2019-04-04T04:43:20.428Z,78.02
2019-04-04T04:45:48.410Z,78.71
2019-04-04T04:48:15.899Z,79.69
2019-04-04T04:50:43.387Z,79.97
2019-04-04T04:53:10.826Z,80.88
2019-04-04T04:55:38.332Z,81.67
2019-04-04T04:58:09.778Z,82.07
2019-04-04T05:00:33.583Z,81.19
2019-04-04T05:03:01.046Z,81.79
2019-04-04T05:05:31.172Z,82.28
2019-04-04T05:07:55.976Z,81.74
2019-04-04T05:10:23.410Z,80.57
2019-04-04T05:12:52.809Z,80.04
2019-04-04T05:15:21.196Z,79.61
2019-04-04T05:17:45.871Z,79.55
2019-04-04T05:20:13.316Z,79.85
2019-04-04T05:22:40.745Z,80.08
2019-04-04T05:25:09.014Z,81.25
2019-04-04T05:27:37.352Z,81.69
2019-04-04T05:30:04.149Z,81.75
2019-04-04T05:32:31.594Z,81.03
2019-04-04T05:35:01.236Z,80.43
2019-04-04T05:37:27.589Z,80.58
2019-04-04T05:39:55.381Z,79.80
2019-04-04T05:42:21.677Z,79.34
2019-04-04T05:44:49.137Z,78.87
2019-04-04T05:47:16.607Z,78.86
2019-04-04T05:49:44.059Z,78.37
2019-04-04T05:52:11.529Z,77.99
2019-04-04T05:54:39.659Z,77.81
2019-04-04T05:57:06.534Z,77.64
2019-04-04T05:59:34.734Z,78.38
2019-04-04T06:02:02.239Z,77.74
2019-04-04T06:04:29.683Z,77.47
2019-04-04T06:06:57.185Z,77.17
2019-04-04T06:09:24.626Z,76.85
2019-04-04T06:11:53.199Z,76.68
2019-04-04T06:14:20.701Z,77.61
2019-04-04T06:16:47.073Z,79.03
2019-04-04T06:19:15.025Z,80.18
2019-04-04T06:21:42.000Z,81.01
2019-04-04T06:24:09.461Z,80.64
2019-04-04T06:26:38.221Z,80.79
2019-04-04T06:29:05.735Z,79.97
2019-04-04T06:31:32.718Z,79.85
2019-04-04T06:34:01.857Z,79.19
2019-04-04T06:36:29.478Z,79.31
2019-04-04T06:38:56.932Z,79.36
2019-04-04T06:41:24.362Z,79.34
2019-04-04T06:43:51.834Z,78.80
2019-04-04T06:46:22.613Z,78.72
2019-04-04T06:48:46.830Z,78.62
2019-04-04T06:51:15.025Z,78.28
2019-04-04T06:53:41.769Z,77.83
2019-04-04T06:56:09.469Z,77.44
2019-04-04T06:58:40.047Z,77.37
2019-04-04T07:01:04.434Z,77.31
2019-04-04T07:03:31.882Z,77.42
2019-04-04T07:05:59.327Z,77.10
2019-04-04T07:08:26.794Z,77.21
2019-04-04T07:10:58.115Z,77.50
2019-04-04T07:13:26.758Z,77.29
2019-04-04T07:16:05.720Z,76.95
2019-04-04T07:18:16.680Z,76.94
2019-04-04T07:20:47.860Z,77.04
2019-04-04T07:23:14.190Z,77.04
2019-04-04T07:25:39.826Z,76.93
2019-04-04T07:28:06.634Z,76.97
2019-04-04T07:30:34.112Z,77.21
2019-04-04T07:33:01.558Z,77.06
2019-04-04T07:35:29.012Z,76.96
2019-04-04T07:37:57.561Z,76.66
2019-04-04T07:40:23.957Z,76.71
2019-04-04T07:42:51.430Z,76.74
2019-04-04T07:45:18.866Z,77.44
2019-04-04T07:47:47.441Z,76.90
2019-04-04T07:50:13.760Z,76.79
2019-04-04T07:52:41.215Z,76.66
2019-04-04T07:55:10.885Z,76.48
2019-04-04T07:57:37.084Z,76.48
2019-04-04T08:00:07.231Z,76.33
2019-04-04T08:02:34.697Z,76.63
2019-04-04T08:05:02.190Z,76.75
2019-04-04T08:07:29.629Z,76.49
2019-04-04T08:09:57.061Z,76.51
2019-04-04T08:12:24.569Z,76.38
2019-04-04T08:14:51.993Z,76.13
2019-04-04T08:17:19.425Z,78.16
2019-04-04T08:19:58.897Z,77.81
2019-04-04T08:22:14.404Z,77.53
2019-04-04T08:24:41.828Z,77.17
2019-04-04T08:27:09.309Z,76.81
2019-04-04T08:29:37.568Z,77.03
2019-04-04T08:32:05.068Z,76.90
2019-04-04T08:34:32.565Z,76.81
2019-04-04T08:37:00.020Z,76.65
2019-04-04T08:39:27.474Z,76.81
2019-04-04T08:41:54.932Z,76.89
2019-04-04T08:44:22.458Z,77.06
2019-04-04T08:46:49.887Z,77.12
2019-04-04T08:49:17.498Z,77.03
2019-04-04T08:51:44.944Z,77.17
2019-04-04T08:54:12.373Z,77.50
2019-04-04T08:56:39.835Z,77.23
2019-04-04T08:59:07.284Z,76.91
2019-04-04T09:01:34.824Z,77.04
2019-04-04T09:04:02.274Z,77.47
2019-04-04T09:06:29.750Z,77.29
2019-04-04T09:08:57.230Z,77.09
2019-04-04T09:11:24.677Z,77.31
2019-04-04T09:13:52.105Z,76.94
2019-04-04T09:16:19.564Z,76.92
2019-04-04T09:18:47.025Z,77.24
2019-04-04T09:21:14.509Z,77.59
2019-04-04T09:23:41.988Z,77.12
2019-04-04T09:26:09.415Z,76.23
2019-04-04T09:28:36.885Z,75.85
2019-04-04T09:31:04.332Z,75.87
2019-04-04T09:33:31.801Z,75.69
2019-04-04T09:35:59.249Z,75.59
2019-04-04T09:38:29.050Z,75.25
2019-04-04T09:40:54.169Z,75.25
2019-04-04T09:43:21.686Z,75.09
2019-04-04T09:45:49.131Z,75.27
2019-04-04T09:48:16.585Z,75.03
2019-04-04T09:50:44.042Z,75.32
2019-04-04T09:53:11.479Z,75.04
2019-04-04T09:55:39.466Z,74.96
2019-04-04T09:58:07.839Z,75.37
2019-04-04T10:00:35.277Z,75.67
2019-04-04T10:03:02.723Z,76.06
2019-04-04T10:05:30.332Z,76.17
2019-04-04T10:07:57.779Z,75.96
2019-04-04T10:10:25.275Z,75.38
2019-04-04T10:12:52.720Z,74.70
2019-04-04T10:15:20.194Z,74.25
2019-04-04T10:17:49.463Z,74.33
2019-04-04T10:20:16.837Z,74.72
2019-04-04T10:22:45.119Z,74.58
2019-04-04T10:25:13.336Z,74.46
2019-04-04T10:27:41.500Z,74.62
2019-04-04T10:30:09.004Z,74.56
2019-04-04T10:32:36.489Z,74.82
2019-04-04T10:35:03.933Z,75.37
2019-04-04T10:37:31.389Z,75.74
2019-04-04T10:39:58.844Z,75.86
2019-04-04T10:42:26.270Z,75.75
2019-04-04T10:44:53.745Z,75.13
2019-04-04T10:47:21.198Z,74.78
2019-04-04T10:49:48.645Z,74.86
2019-04-04T10:52:16.104Z,74.77
2019-04-04T10:54:43.862Z,74.47
2019-04-04T10:57:11.383Z,74.40
2019-04-04T10:59:38.837Z,75.10
2019-04-04T11:02:06.301Z,75.77
2019-04-04T11:04:33.766Z,76.43
2019-04-04T11:07:01.187Z,76.97
2019-04-04T11:09:36.339Z,76.82
2019-04-04T11:11:56.094Z,75.87
2019-04-04T11:14:25.183Z,75.68
2019-04-04T11:16:51.729Z,75.32
2019-04-04T11:19:30.529Z,75.75
2019-04-04T11:21:46.720Z,75.66
2019-04-04T11:24:14.157Z,75.62
2019-04-04T11:26:41.641Z,75.42
2019-04-04T11:29:09.122Z,75.33
2019-04-04T11:31:36.579Z,74.86
2019-04-04T11:34:04.016Z,74.52
2019-04-04T11:36:31.474Z,74.41
2019-04-04T11:38:58.961Z,74.91
2019-04-04T11:41:26.379Z,75.37
2019-04-04T11:43:53.890Z,75.62
2019-04-04T11:46:21.371Z,75.58
2019-04-04T11:48:49.077Z,75.59
2019-04-04T11:51:16.533Z,75.84
2019-04-04T11:53:43.980Z,76.34
2019-04-04T11:56:11.742Z,75.90
2019-04-04T11:58:39.205Z,75.69
2019-04-04T12:01:07.029Z,75.87
2019-04-04T12:03:34.486Z,76.05
2019-04-04T12:06:02.050Z,76.49
2019-04-04T12:08:29.521Z,76.53
2019-04-04T12:10:56.981Z,77.05
2019-04-04T12:13:24.450Z,76.50
2019-04-04T12:15:51.879Z,75.82
2019-04-04T12:18:19.342Z,75.71
2019-04-04T12:20:46.810Z,75.42
2019-04-04T12:23:14.332Z,75.54
2019-04-04T12:25:42.245Z,75.98
2019-04-04T12:28:09.677Z,76.39
2019-04-04T12:30:37.137Z,76.64
2019-04-04T12:33:04.591Z,76.46
2019-04-04T12:35:32.077Z,75.87
2019-04-04T12:37:59.500Z,75.73
2019-04-04T12:40:26.959Z,76.10
2019-04-04T12:42:54.439Z,75.84
2019-04-04T12:45:21.883Z,75.96
2019-04-04T12:47:49.331Z,76.43
2019-04-04T12:50:16.778Z,76.21
2019-04-04T12:52:44.231Z,76.38
2019-04-04T12:55:11.695Z,75.96
2019-04-04T12:57:39.147Z,76.60
2019-04-04T13:00:06.571Z,75.80
2019-04-04T13:02:34.013Z,75.78
2019-04-04T13:05:01.462Z,75.72
2019-04-04T13:07:28.887Z,76.93
2019-04-04T13:09:56.359Z,76.76
2019-04-04T13:12:23.957Z,76.22
2019-04-04T13:14:51.435Z,76.45
2019-04-04T13:17:18.854Z,75.99
2019-04-04T13:19:46.301Z,76.24
2019-04-04T13:22:13.729Z,76.69
2019-04-04T13:24:41.193Z,76.94
2019-04-04T13:27:08.654Z,76.02
2019-04-04T13:29:36.163Z,75.94
2019-04-04T13:32:03.631Z,75.57
2019-04-04T13:34:31.048Z,76.17
2019-04-04T13:36:58.497Z,75.87
2019-04-04T13:39:25.945Z,76.25
2019-04-04T13:41:53.421Z,77.20
2019-04-04T13:44:21.403Z,76.63
2019-04-04T13:46:48.417Z,77.17
2019-04-04T13:49:16.226Z,76.09
2019-04-04T13:51:43.807Z,76.21
2019-04-04T13:54:11.257Z,75.93
2019-04-04T13:56:38.720Z,75.96
2019-04-04T13:59:06.239Z,76.15
2019-04-04T14:01:33.676Z,76.28
2019-04-04T14:04:01.109Z,77.15
2019-04-04T14:06:28.555Z,77.94
2019-04-04T14:08:56.024Z,77.55
2019-04-04T14:11:23.446Z,78.60
2019-04-04T14:13:51.869Z,77.81
2019-04-04T14:16:19.486Z,76.85
2019-04-04T14:18:46.968Z,76.40
2019-04-04T14:21:14.410Z,77.96
2019-04-04T14:23:41.888Z,78.34
2019-04-04T14:26:09.342Z,78.67
2019-04-04T14:28:36.858Z,77.91
2019-04-04T14:31:04.353Z,77.70
2019-04-04T14:33:31.909Z,77.25
2019-04-04T14:35:59.411Z,77.68
2019-04-04T14:38:26.879Z,77.37
2019-04-04T14:40:54.313Z,76.54
2019-04-04T14:43:21.786Z,75.66
2019-04-04T14:45:49.233Z,76.62
2019-04-04T14:48:16.719Z,76.84
2019-04-04T14:50:44.869Z,77.19
2019-04-04T14:53:12.312Z,78.06
2019-04-04T14:55:39.774Z,76.69
2019-04-04T14:58:07.220Z,75.89
2019-04-04T15:00:34.658Z,76.40
2019-04-04T15:03:02.148Z,76.66
2019-04-04T15:05:29.609Z,76.45
2019-04-04T15:07:57.074Z,78.06
2019-04-04T15:10:24.534Z,77.25
2019-04-04T15:12:52.003Z,77.66
2019-04-04T15:15:19.476Z,77.69
2019-04-04T15:17:46.905Z,77.18
2019-04-04T15:20:15.375Z,76.72
2019-04-04T15:22:42.849Z,76.39
2019-04-04T15:25:10.314Z,76.66
2019-04-04T15:27:37.759Z,76.55
2019-04-04T15:30:05.196Z,76.32
2019-04-04T15:32:32.779Z,76.23
2019-04-04T15:35:00.291Z,76.18
2019-04-04T15:37:27.741Z,75.83
2019-04-04T15:39:55.237Z,75.48
2019-04-04T15:42:22.677Z,75.46
2019-04-04T15:44:50.159Z,76.41
2019-04-04T15:47:17.626Z,76.40
2019-04-04T15:49:45.965Z,78.01
2019-04-04T15:52:13.416Z,76.96
2019-04-04T15:54:42.096Z,76.08
2019-04-04T15:57:09.581Z,75.71
2019-04-04T15:59:37.020Z,76.70
2019-04-04T16:02:04.462Z,76.37
2019-04-04T16:04:31.926Z,75.24
2019-04-04T16:06:59.328Z,74.77
2019-04-04T16:09:26.792Z,75.42
2019-04-04T16:11:54.237Z,75.42
2019-04-04T16:14:21.691Z,75.67
2019-04-04T16:16:49.131Z,75.74
2019-04-04T16:19:16.588Z,75.52
2019-04-04T16:21:44.070Z,75.20
2019-04-04T16:24:11.884Z,74.54
2019-04-04T16:26:39.390Z,74.05
2019-04-04T16:29:06.828Z,73.86
2019-04-04T16:31:34.515Z,74.21
2019-04-04T16:34:01.778Z,74.41
2019-04-04T16:36:29.214Z,74.37
2019-04-04T16:38:56.692Z,74.71
2019-04-04T16:41:24.131Z,74.87
2019-04-04T16:43:51.572Z,74.67
2019-04-04T16:46:18.983Z,74.57
2019-04-04T16:48:46.805Z,74.67
2019-04-04T16:51:15.543Z,74.58
2019-04-04T16:53:42.992Z,74.29
2019-04-04T16:56:10.441Z,73.68
2019-04-04T16:58:37.894Z,73.96
2019-04-04T17:01:05.332Z,75.21
2019-04-04T17:03:34.377Z,74.52
2019-04-04T17:06:00.226Z,73.95
2019-04-04T17:08:27.681Z,73.73
2019-04-04T17:10:55.134Z,73.41
2019-04-04T17:13:22.563Z,75.87
2019-04-04T17:15:50.061Z,75.52
2019-04-04T17:18:17.472Z,76.34
2019-04-04T17:20:44.906Z,75.14
2019-04-04T17:23:12.350Z,74.50
2019-04-04T17:25:42.612Z,74.57
2019-04-04T17:28:10.203Z,75.89
2019-04-04T17:30:38.117Z,78.43
2019-04-04T17:33:05.589Z,77.72
2019-04-04T17:35:32.641Z,77.31
2019-04-04T17:38:00.081Z,79.88
2019-04-04T17:40:27.498Z,79.96
2019-04-04T17:42:54.947Z,79.73
2019-04-04T17:45:22.381Z,79.15
2019-04-04T17:47:50.087Z,79.85
2019-04-04T17:50:19.366Z,81.02
2019-04-04T17:52:45.858Z,81.10
2019-04-04T17:55:12.847Z,82.20
2019-04-04T17:57:40.302Z,82.17
2019-04-04T18:00:07.775Z,82.14
2019-04-04T18:02:36.031Z,81.59
2019-04-04T18:05:03.663Z,81.88
2019-04-04T18:07:31.079Z,82.11
2019-04-04T18:09:58.541Z,81.30
2019-04-04T18:12:26.010Z,80.17
2019-04-04T18:14:53.435Z,79.44
2019-04-04T18:17:20.855Z,79.94
2019-04-04T18:19:48.502Z,79.48
2019-04-04T18:22:15.992Z,80.39
2019-04-04T18:24:43.447Z,80.61
2019-04-04T18:27:10.887Z,80.21
2019-04-04T18:29:38.343Z,79.60
2019-04-04T18:32:05.779Z,79.23
2019-04-04T18:34:33.598Z,78.68
2019-04-04T18:37:01.171Z,77.93
2019-04-04T18:39:28.213Z,77.56
2019-04-04T18:41:55.628Z,77.17
2019-04-04T18:44:23.077Z,76.84
2019-04-04T18:46:51.108Z,77.67
2019-04-04T18:49:19.377Z,78.05
2019-04-04T18:51:46.821Z,77.84
2019-04-04T18:54:14.314Z,77.82
2019-04-04T18:56:41.774Z,77.31
2019-04-04T18:59:09.300Z,76.92
2019-04-04T19:01:36.763Z,76.69
2019-04-04T19:04:04.215Z,76.66
2019-04-04T19:06:31.677Z,75.93
2019-04-04T19:08:59.618Z,75.53
2019-04-04T19:11:27.162Z,75.28
2019-04-04T19:13:54.625Z,75.93
2019-04-04T19:16:22.095Z,77.55
2019-04-04T19:18:49.775Z,79.45
2019-04-04T19:21:17.214Z,78.77
2019-04-04T19:23:49.551Z,78.95
2019-04-04T19:26:12.154Z,77.99
2019-04-04T19:28:40.038Z,77.36
2019-04-04T19:31:07.493Z,76.94
2019-04-04T19:33:34.961Z,76.49
2019-04-04T19:36:02.475Z,78.43
2019-04-04T19:38:29.952Z,77.93
2019-04-04T19:40:57.371Z,77.21
2019-04-04T19:43:24.807Z,76.57
2019-04-04T19:45:52.264Z,76.31
2019-04-04T19:48:19.696Z,76.27
2019-04-04T19:50:47.137Z,76.33
2019-04-04T19:53:14.584Z,75.78
2019-04-04T19:55:42.545Z,75.42
2019-04-04T19:58:09.532Z,75.25
2019-04-04T20:00:37.018Z,75.97
2019-04-04T20:03:04.541Z,77.23
2019-04-04T20:05:32.003Z,77.78
2019-04-04T20:07:59.472Z,77.24
2019-04-04T20:10:26.935Z,76.58
2019-04-04T20:12:54.351Z,76.33
2019-04-04T20:15:21.777Z,76.22
2019-04-04T20:17:49.205Z,76.16
2019-04-04T20:20:16.682Z,75.64
2019-04-04T20:22:44.115Z,75.28
2019-04-04T20:25:11.580Z,75.19
2019-04-04T20:27:40.138Z,76.91
2019-04-04T20:30:07.640Z,77.03
2019-04-04T20:32:35.120Z,76.58
2019-04-04T20:35:02.552Z,76.67
2019-04-04T20:37:29.993Z,76.61
2019-04-04T20:39:57.436Z,76.28
2019-04-04T20:42:24.857Z,78.31
2019-04-04T20:44:52.288Z,79.10
2019-04-04T20:47:19.748Z,78.45
2019-04-04T20:49:47.176Z,78.44
2019-04-04T20:52:14.623Z,78.59
2019-04-04T20:54:42.089Z,79.28
2019-04-04T20:57:09.579Z,78.79
2019-04-04T20:59:37.029Z,78.11
2019-04-04T21:02:04.522Z,78.77
2019-04-04T21:04:31.963Z,79.03
2019-04-04T21:06:59.450Z,80.29
2019-04-04T21:09:26.890Z,82.73
2019-04-04T21:11:57.261Z,83.04
2019-04-04T21:14:24.737Z,83.00
2019-04-04T21:16:52.203Z,83.62
2019-04-04T21:19:19.686Z,82.75
2019-04-04T21:21:47.119Z,82.44
2019-04-04T21:24:14.586Z,82.54
2019-04-04T21:26:42.307Z,82.06
2019-04-04T21:29:09.819Z,81.45
2019-04-04T21:31:37.280Z,81.25
2019-04-04T21:34:04.707Z,81.37
2019-04-04T21:36:32.152Z,82.93
2019-04-04T21:38:59.611Z,84.31
2019-04-04T21:41:27.161Z,84.74
2019-04-04T21:43:54.618Z,84.15
2019-04-04T21:46:22.087Z,83.13
2019-04-04T21:48:49.609Z,82.14
2019-04-04T21:51:17.063Z,81.67
2019-04-04T21:53:44.520Z,81.66
2019-04-04T21:56:12.927Z,81.54
2019-04-04T21:58:40.409Z,80.81
2019-04-04T22:01:07.839Z,80.17
2019-04-04T22:03:36.837Z,79.91
2019-04-04T22:06:02.854Z,80.27
2019-04-04T22:08:30.319Z,79.84
2019-04-04T22:10:57.807Z,79.52
2019-04-04T22:13:25.254Z,79.46
2019-04-04T22:15:52.788Z,78.97
2019-04-04T22:18:20.251Z,78.54
2019-04-04T22:20:47.776Z,78.29
2019-04-04T22:23:15.354Z,78.22
2019-04-04T22:25:42.852Z,78.38
2019-04-04T22:28:10.371Z,78.28
2019-04-04T22:30:37.899Z,78.23
2019-04-04T22:33:05.366Z,77.77
2019-04-04T22:35:32.838Z,77.64
2019-04-04T22:38:00.331Z,77.70
2019-04-04T22:40:27.837Z,77.42
2019-04-04T22:42:55.298Z,77.48
2019-04-04T22:45:22.832Z,77.33
2019-04-04T22:47:50.335Z,77.40
2019-04-04T22:50:18.358Z,77.23
2019-04-04T22:52:45.902Z,76.92
2019-04-04T22:55:14.435Z,77.18
2019-04-04T22:57:42.007Z,77.20
2019-04-04T23:00:09.501Z,77.09
2019-04-04T23:02:37.007Z,78.48
2019-04-04T23:05:05.180Z,78.46
2019-04-04T23:07:32.657Z,78.95
2019-04-04T23:10:00.127Z,80.10
2019-04-04T23:12:27.698Z,79.99
2019-04-04T23:14:55.209Z,81.14
2019-04-04T23:17:22.730Z,81.85
2019-04-04T23:19:50.244Z,82.23
2019-04-04T23:22:17.742Z,81.90
2019-04-04T23:24:45.210Z,81.62
2019-04-04T23:27:12.679Z,81.69
2019-04-04T23:29:42.498Z,80.98
2019-04-04T23:32:07.710Z,80.33
2019-04-04T23:34:35.206Z,79.90
2019-04-04T23:37:02.691Z,79.39
2019-04-04T23:39:30.170Z,78.71
2019-04-04T23:41:57.644Z,78.38
2019-04-04T23:44:25.125Z,78.21
2019-04-04T23:46:52.585Z,78.32
2019-04-04T23:49:20.112Z,77.93
2019-04-04T23:51:48.640Z,77.94
2019-04-04T23:54:16.091Z,77.72
2019-04-04T23:56:43.564Z,78.10
2019-04-04T23:59:13.191Z,79.68
